Time;durP1;ratioP1;P1;durP2;ratioP2;P2;SDS_P1;SDS_P2;PMS_P1;PMS_P2;Temp;Humidity;BMP_temperature;BMP_pressure;BME280_temperature;BME280_humidity;BME280_pressure;Samples;Min_cycle;Max_cycle;Signal;HPM_P1;HPM_P2
2022/12/23 00:07:54;;;;;;;50.60;22.70;;;;;;;7.47;100.00;99088.39;660700;1305;138890;-86
2022/12/23 00:23:04;;;;;;;47.10;22.60;;;;;;;7.47;100.00;99098.33;660314;1312;138943;-87
2022/12/23 00:38:07;;;;;;;43.50;21.10;;;;;;;7.51;100.00;99098.49;659873;1313;138518;-86
2022/12/23 00:53:11;;;;;;;40.00;19.70;;;;;;;7.48;100.00;99116.33;660306;1313;138816;-86
2022/12/23 01:08:14;;;;;;;33.40;17.20;;;;;;;7.44;100.00;99121.53;660449;1313;138385;-86
2022/12/23 01:23:17;;;;;;;32.20;15.20;;;;;;;7.43;100.00;99124.40;660197;1313;138710;-86
2022/12/23 01:38:21;;;;;;;31.60;17.50;;;;;;;7.29;100.00;99120.52;660316;1313;138543;-87
2022/12/23 01:53:29;;;;;;;33.00;16.70;;;;;;;7.35;100.00;99135.45;660521;1313;139223;-86
2022/12/23 02:24:36;;;;;;;31.80;17.50;;;;;;;7.39;100.00;99145.97;660490;1311;138876;-86
2022/12/23 02:39:49;;;;;;;81.60;41.80;;;;;;;7.41;100.00;99146.90;659494;1303;138463;-86
2022/12/23 02:54:59;;;;;;;93.50;48.90;;;;;;;7.34;100.00;99143.83;660548;1313;141567;-86
2022/12/23 03:10:35;;;;;;;82.40;37.80;;;;;;;7.30;100.00;99148.09;660340;1308;138577;-86
2022/12/23 03:25:46;;;;;;;54.50;30.90;;;;;;;7.28;100.00;99151.23;660445;1311;138938;-86
2022/12/23 03:40:55;;;;;;;68.30;29.40;;;;;;;7.33;100.00;99150.38;660387;1311;138826;-86
2022/12/23 03:56:02;;;;;;;83.10;34.80;;;;;;;7.28;100.00;99161.95;660590;1312;138528;-87
2022/12/23 04:11:06;;;;;;;;;;;;;;;7.21;100.00;99158.33;660551;1312;138852;-88
2022/12/23 04:26:10;;;;;;;45.30;22.80;;;;;;;7.15;100.00;99152.05;660538;1313;125056;-86
2022/12/23 04:41:13;;;;;;;47.90;23.70;;;;;;;7.10;100.00;99155.11;660331;1313;138587;-87
2022/12/23 04:56:16;;;;;;;43.40;22.70;;;;;;;7.06;100.00;99162.20;660582;1313;138564;-87
2022/12/23 05:11:20;;;;;;;62.60;32.40;;;;;;;6.91;100.00;99159.98;660448;1311;138828;-87
2022/12/23 05:26:23;;;;;;;44.00;21.50;;;;;;;6.91;100.00;99166.95;660663;1304;138831;-86
2022/12/23 05:41:27;;;;;;;35.70;19.90;;;;;;;6.87;100.00;99170.54;660520;1312;138567;-86
2022/12/23 05:56:30;;;;;;;36.40;18.60;;;;;;;6.90;100.00;99173.45;659751;1313;138556;-87
2022/12/23 06:11:34;;;;;;;36.90;19.00;;;;;;;6.81;100.00;99187.73;660608;1309;138594;-86
2022/12/23 06:26:37;;;;;;;37.90;20.80;;;;;;;6.80;100.00;99198.23;660857;1313;138543;-86
2022/12/23 06:41:40;;;;;;;35.10;20.20;;;;;;;6.75;100.00;99210.55;660726;1294;138692;-87
2022/12/23 06:56:43;;;;;;;37.10;18.30;;;;;;;6.74;100.00;99205.61;660452;1312;138984;-87
2022/12/23 07:11:47;;;;;;;47.10;21.70;;;;;;;6.77;100.00;99206.00;660764;1312;139367;-88
2022/12/23 07:26:51;;;;;;;41.10;20.60;;;;;;;6.77;100.00;99199.09;660900;1299;138680;-87
2022/12/23 07:41:54;;;;;;;58.50;26.80;;;;;;;6.80;100.00;99210.27;660666;1311;139993;-87
2022/12/23 07:57:17;;;;;;;57.50;29.40;;;;;;;6.83;100.00;99227.20;660928;1312;138496;-88
2022/12/23 08:12:20;;;;;;;59.20;27.70;;;;;;;6.85;100.00;99223.05;660817;1312;138506;-88
2022/12/23 08:27:23;;;;;;;50.30;25.20;;;;;;;6.80;100.00;99221.02;661067;1311;138765;-87
2022/12/23 08:42:26;;;;;;;68.70;31.50;;;;;;;6.81;100.00;99224.11;660612;1311;138472;-86
2022/12/23 08:57:29;;;;;;;217.70;85.20;;;;;;;6.72;100.00;99227.48;660942;1312;138633;-88
2022/12/23 09:12:33;;;;;;;85.40;43.00;;;;;;;6.85;100.00;99224.30;660858;1312;140710;-88
2022/12/23 09:27:36;;;;;;;72.60;29.40;;;;;;;6.88;100.00;99216.18;660876;1303;138500;-88
2022/12/23 09:43:01;;;;;;;108.80;50.70;;;;;;;6.82;100.00;99209.17;660957;1311;138684;-88
2022/12/23 09:58:21;;;;;;;76.90;32.00;;;;;;;6.96;100.00;99201.52;660670;1308;138796;-89
2022/12/23 10:13:26;;;;;;;80.00;33.40;;;;;;;6.94;100.00;99200.15;660820;1313;138514;-87
2022/12/23 10:28:29;;;;;;;78.50;29.00;;;;;;;6.94;100.00;99181.89;660778;1311;138587;-87
2022/12/23 10:43:51;;;;;;;88.20;35.40;;;;;;;7.08;100.00;99156.98;660623;1304;138505;-89
2022/12/23 10:58:57;;;;;;;75.90;37.30;;;;;;;7.08;100.00;99146.27;660812;1312;138599;-86
2022/12/23 11:14:00;;;;;;;84.90;37.30;;;;;;;7.13;100.00;99134.10;660776;1306;138495;-86
2022/12/23 11:29:09;;;;;;;108.90;50.50;;;;;;;7.16;100.00;99120.96;660713;1310;138718;-87
2022/12/23 11:44:41;;;;;;;91.60;41.10;;;;;;;7.27;100.00;99107.07;660304;1312;138941;-87
2022/12/23 11:59:48;;;;;;;89.30;37.90;;;;;;;7.51;100.00;99114.97;660761;1313;138660;-88
2022/12/23 12:14:58;;;;;;;144.90;59.80;;;;;;;7.53;100.00;99119.36;660963;1313;138541;-88
2022/12/23 12:30:07;;;;;;;62.60;30.70;;;;;;;7.49;100.00;99122.96;660910;1312;139184;-88
2022/12/23 12:45:14;;;;;;;58.80;27.40;;;;;;;7.60;100.00;99116.54;660455;1308;138653;-87
2022/12/23 13:00:20;;;;;;;52.20;24.50;;;;;;;7.64;100.00;99120.84;660918;1307;138870;-87
2022/12/23 13:15:49;;;;;;;51.70;25.90;;;;;;;7.74;100.00;99132.34;660751;1305;138556;-87
2022/12/23 13:31:14;;;;;;;76.60;35.40;;;;;;;7.84;100.00;99140.23;660976;1305;138883;-87
2022/12/23 13:46:48;;;;;;;288.10;140.40;;;;;;;7.85;100.00;99154.48;660424;1309;138708;-87
2022/12/23 14:01:52;;;;;;;105.20;53.70;;;;;;;7.75;100.00;99143.55;660407;1307;139031;-86
2022/12/23 14:17:29;;;;;;;88.10;42.20;;;;;;;7.70;100.00;99137.38;660877;1311;138857;-88
2022/12/23 14:32:48;;;;;;;107.90;48.90;;;;;;;7.63;100.00;99130.60;660977;1313;138670;-87
2022/12/23 14:47:51;;;;;;;70.80;40.20;;;;;;;7.71;100.00;99146.02;661110;1312;138859;-87
2022/12/23 15:02:59;;;;;;;69.20;33.70;;;;;;;7.47;100.00;99160.06;660956;1310;138712;-86
2022/12/23 15:18:11;;;;;;;70.80;33.00;;;;;;;7.33;100.00;99171.27;662209;1304;138762;-87
2022/12/23 15:33:20;;;;;;;92.10;37.00;;;;;;;7.26;100.00;99164.80;661041;1312;138680;-87
2022/12/23 15:48:45;;;;;;;81.40;36.30;;;;;;;7.27;100.00;99179.98;661030;1313;138564;-87
2022/12/23 16:03:52;;;;;;;102.30;43.80;;;;;;;7.36;100.00;99184.44;661015;1311;138441;-87
2022/12/23 16:18:56;;;;;;;;;;;;;;;7.24;100.00;99188.83;660455;1313;138725;-88
2022/12/23 16:34:05;;;;;;;71.50;32.30;;;;;;;7.16;100.00;99206.52;660697;1313;124631;-88
2022/12/23 16:49:18;;;;;;;82.10;34.70;;;;;;;7.17;100.00;99215.80;660704;1307;138627;-87
2022/12/23 17:04:22;;;;;;;71.40;31.60;;;;;;;7.19;100.00;99223.52;660023;1313;139744;-90
2022/12/23 17:19:25;;;;;;;76.20;31.80;;;;;;;7.15;100.00;99234.09;660901;1313;138962;-88
2022/12/23 17:34:32;;;;;;;83.70;34.90;;;;;;;7.11;100.00;99224.87;660847;1313;138590;-88
2022/12/23 17:49:35;;;;;;;74.10;34.60;;;;;;;7.08;100.00;99207.48;660372;1312;138633;-88
2022/12/23 18:04:39;;;;;;;70.10;28.00;;;;;;;7.15;100.00;99216.73;660685;1313;138502;-89
2022/12/23 18:19:42;;;;;;;75.20;31.30;;;;;;;7.09;100.00;99234.80;660863;1301;138609;-89
2022/12/23 18:34:46;;;;;;;79.70;34.70;;;;;;;6.96;100.00;99241.67;660860;1312;138674;-89
2022/12/23 18:49:50;;;;;;;74.50;29.00;;;;;;;6.98;100.00;99247.94;660747;1305;138642;-90
2022/12/23 19:04:53;;;;;;;97.00;33.30;;;;;;;6.99;100.00;99253.64;660766;1312;138694;-89
2022/12/23 19:19:56;;;;;;;78.90;29.10;;;;;;;6.94;100.00;99274.92;660964;1311;138531;-90
2022/12/23 19:35:00;;;;;;;87.60;36.50;;;;;;;6.99;100.00;99293.22;660747;1312;138583;-89
2022/12/23 19:50:05;;;;;;;78.70;32.00;;;;;;;6.98;100.00;99298.02;660476;1313;138512;-88
2022/12/23 20:05:09;;;;;;;72.80;29.40;;;;;;;7.01;100.00;99287.31;659651;1313;138645;-89
2022/12/23 20:20:12;;;;;;;147.40;58.40;;;;;;;7.14;100.00;99296.48;659445;1313;138858;-89
2022/12/23 20:35:15;;;;;;;256.80;130.30;;;;;;;7.19;100.00;99301.00;659842;1304;138941;-89
2022/12/23 20:50:20;;;;;;;131.40;56.50;;;;;;;7.14;100.00;99298.17;660234;1309;139026;-89
2022/12/23 21:05:23;;;;;;;68.40;27.50;;;;;;;7.11;100.00;99314.61;660381;1305;139004;-88
2022/12/23 21:20:27;;;;;;;64.80;29.10;;;;;;;7.10;100.00;99317.80;660572;1311;138716;-88
2022/12/23 21:35:30;;;;;;;66.50;30.30;;;;;;;6.99;100.00;99332.89;659898;1313;138676;-86
2022/12/23 21:50:33;;;;;;;128.10;59.40;;;;;;;7.04;100.00;99342.18;660255;1312;138542;-88
2022/12/23 22:05:37;;;;;;;217.40;96.40;;;;;;;7.04;100.00;99344.47;660725;1312;138994;-90
2022/12/23 22:20:42;;;;;;;74.00;37.20;;;;;;;6.98;100.00;99347.40;660948;1312;138983;-87
2022/12/23 22:35:55;;;;;;;81.10;33.70;;;;;;;6.90;100.00;99349.86;660655;1312;138835;-88
2022/12/23 22:51:02;;;;;;;77.90;36.30;;;;;;;6.88;100.00;99368.44;660859;1313;138666;-88
2022/12/23 23:06:08;;;;;;;88.80;35.10;;;;;;;6.63;100.00;99375.77;660959;1312;138534;-90
2022/12/23 23:21:13;;;;;;;77.50;34.00;;;;;;;6.60;100.00;99371.16;660854;1312;138788;-90
2022/12/23 23:36:16;;;;;;;72.00;31.90;;;;;;;6.69;100.00;99384.88;660501;1312;138937;-88
2022/12/23 23:51:19;;;;;;;71.30;30.30;;;;;;;6.75;100.00;99380.64;661056;1313;138641;-88
